METAR Data
IDs: Format: Raw Decoded Include TAF

Data at: 0057 UTC 14 Nov 2019

Region: TOP
KATL 140052Z 10009KT 10SM BKN250 04/M07 A3029 RMK AO2 SLP267 T00441072

KBOS 140054Z 30011G17KT 10SM FEW035 FEW250 M03/M16 A3041 RMK AO2 SLP297 T10281156

KBWI 140054Z 00000KT 10SM FEW004 FEW200 BKN250 M01/M08 A3042 RMK AO2 SLP301 FU FEW004 SW AND N DRFTING N T10111083

KCLE 140051Z 17009KT 10SM BKN180 M03/M09 A3023 RMK AO2 SLP250 T10331094

KCLT 140052Z 10005KT 10SM CLR 03/M10 A3039 RMK AO2 SLP298 T00281100

KCVG 140052Z 19004KT 10SM BKN250 M04/M09 A3021 RMK AO2 SLP241 T10391089

KDCA 140052Z 13004KT 10SM SCT250 01/M08 A3044 RMK AO2 SLP306 T00111083

KDEN 140053Z 11007KT 10SM FEW100 02/M03 A3011 RMK AO2 SLP188 T00221028

KDFW 140053Z 17011KT 10SM BKN038 OVC050 06/M06 A3009 RMK AO2 SLP191 T00561061

KDTW 140053Z 18011KT 10SM FEW110 OVC150 M04/M10 A3017 RMK AO2 SLP228 T10441100

KEWR 140051Z 35007KT 10SM BKN250 M01/M14 A3043 RMK AO2 SLP304 T10111144 $

KFLL 140053Z 04012G18KT 9SM -RA FEW021 BKN030 OVC050 22/21 A3002 RMK AO2 RAB2357E09B36 SLP165 P0002 T02220211 $

KIAD 140052Z 11003KT 10SM BKN250 M03/M09 A3041 RMK AO2 SLP301 T10331089

KIAH 140053Z 13005KT 10SM BKN070 BKN110 OVC170 07/M01 A3019 RMK AO2 SLP224 T00671006

KJFK 140051Z 01008KT 10SM BKN250 M01/M14 A3044 RMK AO2 SLP306 T10111139

KLAS 132356Z 00000KT 10SM FEW180 BKN250 23/M06 A2996 RMK AO2 SLP134 T02281061 10239 20200 56010

KLAX 140053Z 26006KT 10SM OVC011 17/12 A2999 RMK AO2 SLP155 T01670122

KLGA 140051Z 34008KT 10SM FEW250 00/M13 A3042 RMK AO2 SLP301 T00001128

KMCO 140053Z 03010KT 10SM BKN044 19/12 A3012 RMK AO2 SLP199 T01940117

KMDW 140053Z 20011KT 10SM FEW060 BKN120 OVC150 M03/M09 A3009 RMK AO2 SLP207 T10331094

KMEM 140054Z 20005KT 10SM BKN250 01/M07 A3019 RMK AO2 SLP228 T00061067 $

KMIA 140053Z 00000KT 10SM -RA SCT021 SCT032 BKN080 OVC200 23/21 A3003 RMK AO2 SLP168 P0004 T02330206 $

KMSP 140053Z 33006KT 10SM OVC021 M02/M07 A3002 RMK AO2 SLP178 T10221067

KORD 140051Z 21007KT 10SM FEW080 BKN110 OVC140 M04/M11 A3007 RMK AO2 SLP192 T10391106

KPDX 140053Z 00000KT 10SM CLR 10/07 A3002 RMK AO2 SLP164 T01000072

KPHL 140054Z 33005KT 10SM CLR M01/M12 A3044 RMK AO2 SLP308 T10061122 $

KPHX 140051Z 34004KT 10SM FEW130 FEW230 SCT290 24/02 A2992 RMK AO2 SLP120 T02440017

KPIT 140051Z 13005KT 10SM BKN150 OVC250 M04/M11 A3024 RMK AO2 SLP269 T10441106

KSAN 140051Z 33007KT 10SM BKN010 BKN200 BKN250 18/16 A3001 RMK AO2 SLP162 T01780156

KSEA 140053Z 01011KT 10SM FEW015 SCT250 11/07 A3005 RMK AO2 SLP184 T01060072

KSFO 132356Z 30013KT 9SM FEW005 BKN180 OVC200 13/10 A2996 RMK AO2 SLP146 T01330100 10161 20133 55002

KSLC 140054Z 29003KT 10SM FEW090 FEW200 10/M01 A3012 RMK AO2 SLP191 T01001011

KSTL 140051Z 16008KT 10SM FEW160 OVC190 02/M09 A3009 RMK AO2 SLP202 T00221089

KTPA 140053Z 04007G17KT 10SM FEW033 BKN070 18/12 A3011 RMK AO2 SLP197 T01780122 $